createdAt,value
2023-01-07T00:00:28.153Z,23.05
2023-01-07T00:01:34.452Z,24.42
2023-01-07T00:02:36.426Z,31.05
2023-01-07T00:03:41.546Z,27.40
2023-01-07T00:04:43.471Z,26.33
2023-01-07T00:05:48.209Z,27.50
2023-01-07T00:06:50.356Z,24.00
2023-01-07T00:07:54.920Z,24.80
2023-01-07T00:09:01.144Z,20.45
2023-01-07T00:10:03.203Z,21.13
2023-01-07T00:11:12.865Z,20.80
2023-01-07T00:12:14.817Z,20.35
2023-01-07T00:13:19.342Z,23.73
2023-01-07T00:14:21.274Z,30.20
2023-01-07T00:15:25.786Z,23.05
2023-01-07T00:16:30.479Z,25.27
2023-01-07T00:17:34.968Z,25.67
2023-01-07T00:18:37.784Z,30.98
2023-01-07T00:19:42.276Z,28.30
2023-01-07T00:20:44.159Z,34.45
2023-01-07T00:21:48.652Z,35.30
2023-01-07T00:22:50.565Z,32.92
2023-01-07T00:23:57.310Z,31.17
2023-01-07T00:25:01.883Z,26.17
2023-01-07T00:26:08.877Z,22.13
2023-01-07T00:27:13.375Z,21.80
2023-01-07T00:28:15.256Z,22.55
2023-01-07T00:29:21.056Z,19.90
2023-01-07T00:30:23.032Z,22.02
2023-01-07T00:31:29.078Z,21.83
2023-01-07T00:32:51.189Z,24.40
2023-01-07T00:34:07.074Z,23.25
2023-01-07T00:35:22.703Z,27.30
2023-01-07T00:36:28.966Z,22.38
2023-01-07T00:37:45.977Z,25.35
2023-01-07T00:38:51.195Z,34.35
2023-01-07T00:39:53.071Z,25.08
2023-01-07T00:40:57.703Z,22.75
2023-01-07T00:42:17.305Z,20.23
2023-01-07T00:43:21.982Z,20.00
2023-01-07T00:44:23.858Z,18.67
2023-01-07T00:45:28.690Z,20.05
2023-01-07T00:46:30.655Z,22.95
2023-01-07T00:47:35.194Z,23.70
2023-01-07T00:48:37.050Z,25.98
2023-01-07T00:49:41.477Z,27.40
2023-01-07T00:50:43.422Z,23.63
2023-01-07T00:51:47.962Z,25.55
2023-01-07T00:52:49.933Z,43.92
2023-01-07T00:53:54.479Z,21.50
2023-01-07T00:54:56.345Z,21.92
2023-01-07T00:56:00.888Z,22.05
2023-01-07T00:57:05.368Z,23.92
2023-01-07T00:58:10.117Z,21.45
2023-01-07T00:59:12.111Z,20.60
2023-01-07T01:00:19.078Z,33.83
2023-01-07T01:01:21.181Z,21.55
2023-01-07T01:02:26.026Z,20.92
2023-01-07T01:03:29.508Z,20.52
2023-01-07T01:04:34.405Z,24.48
2023-01-07T01:05:36.375Z,24.30
2023-01-07T01:06:40.944Z,22.95
2023-01-07T01:07:43.011Z,25.42
2023-01-07T01:08:49.337Z,22.60
2023-01-07T01:09:51.326Z,21.17
2023-01-07T01:10:55.878Z,19.42
2023-01-07T01:11:57.780Z,20.08
2023-01-07T01:13:04.954Z,19.90
2023-01-07T01:14:06.879Z,23.13
2023-01-07T01:15:14.302Z,20.90
2023-01-07T01:16:20.640Z,19.50
2023-01-07T01:17:22.804Z,25.30
2023-01-07T01:18:27.407Z,15.10
2023-01-07T01:19:29.292Z,15.70
2023-01-07T01:20:33.785Z,18.05
2023-01-07T01:21:35.810Z,22.40
2023-01-07T01:22:40.915Z,18.85
2023-01-07T01:23:46.241Z,16.65
2023-01-07T01:24:48.128Z,17.63
2023-01-07T01:25:52.640Z,16.30
2023-01-07T01:26:54.542Z,14.95
2023-01-07T01:27:59.035Z,16.10
2023-01-07T01:29:03.795Z,23.05
2023-01-07T01:30:10.155Z,14.63
2023-01-07T01:31:12.710Z,17.08
2023-01-07T01:32:17.393Z,14.77
2023-01-07T01:33:19.335Z,14.73
2023-01-07T01:34:24.095Z,17.00
2023-01-07T01:35:26.386Z,17.25
2023-01-07T01:36:30.871Z,14.02
2023-01-07T01:37:32.762Z,20.05
2023-01-07T01:38:37.263Z,20.73
2023-01-07T01:39:39.147Z,21.48
2023-01-07T01:40:43.992Z,19.48
2023-01-07T01:41:46.280Z,18.40
2023-01-07T01:42:50.775Z,15.98
2023-01-07T01:43:52.788Z,18.13
2023-01-07T01:45:01.454Z,15.73
2023-01-07T01:46:10.532Z,19.70
2023-01-07T01:47:20.821Z,19.73
2023-01-07T01:48:23.301Z,20.02
2023-01-07T01:49:32.403Z,42.97
2023-01-07T01:50:42.135Z,27.17
2023-01-07T01:51:48.841Z,30.02
2023-01-07T01:52:59.905Z,26.20
2023-01-07T01:54:04.205Z,28.75
2023-01-07T01:55:11.943Z,24.88
2023-01-07T01:56:18.870Z,24.15
2023-01-07T01:57:25.419Z,18.30
2023-01-07T01:58:34.032Z,17.08
2023-01-07T01:59:40.633Z,21.83
2023-01-07T02:00:47.748Z,22.42
2023-01-07T02:01:50.007Z,24.35
2023-01-07T02:02:59.648Z,19.33
2023-01-07T02:04:04.958Z,14.55
2023-01-07T02:05:10.599Z,15.52
2023-01-07T02:06:21.529Z,14.13
2023-01-07T02:07:26.099Z,31.65
2023-01-07T02:08:28.643Z,15.57
2023-01-07T02:09:33.471Z,17.08
2023-01-07T02:10:35.783Z,18.35
2023-01-07T02:11:45.857Z,16.23
2023-01-07T02:13:02.077Z,18.90
2023-01-07T02:14:18.004Z,14.77
2023-01-07T02:15:30.143Z,14.80
2023-01-07T02:16:42.150Z,17.08
2023-01-07T02:18:04.812Z,29.60
2023-01-07T02:19:38.216Z,17.92
2023-01-07T02:21:08.950Z,16.88
2023-01-07T02:22:22.056Z,15.93
2023-01-07T02:24:08.833Z,21.48
2023-01-07T02:25:37.379Z,29.40
2023-01-07T02:27:01.338Z,21.73
2023-01-07T02:28:26.264Z,17.77
2023-01-07T02:29:58.278Z,16.20
2023-01-07T02:31:29.434Z,19.67
2023-01-07T02:32:48.848Z,17.23
2023-01-07T02:34:00.869Z,19.52
2023-01-07T02:35:09.789Z,17.15
2023-01-07T02:36:40.462Z,16.42
2023-01-07T02:37:51.778Z,18.02
2023-01-07T02:39:07.369Z,17.65
2023-01-07T02:40:16.955Z,22.40
2023-01-07T02:41:30.129Z,20.27
2023-01-07T02:42:40.699Z,25.75
2023-01-07T02:43:50.327Z,16.67
2023-01-07T02:45:05.085Z,18.00
2023-01-07T02:46:17.001Z,16.13
2023-01-07T02:47:31.030Z,25.25
2023-01-07T02:48:36.703Z,20.67
2023-01-07T02:49:41.204Z,20.73
2023-01-07T02:50:43.112Z,22.17
2023-01-07T02:51:49.039Z,19.73
2023-01-07T02:52:50.891Z,15.35
2023-01-07T02:53:55.461Z,24.45
2023-01-07T02:55:03.033Z,15.93
2023-01-07T02:56:24.767Z,15.35
2023-01-07T02:58:07.850Z,13.77
2023-01-07T02:59:40.525Z,14.23
2023-01-07T03:01:07.898Z,13.55
2023-01-07T03:02:42.193Z,14.90
2023-01-07T03:04:16.633Z,14.30
2023-01-07T03:05:34.215Z,12.77
2023-01-07T03:07:07.174Z,13.43
2023-01-07T03:08:26.202Z,12.13
2023-01-07T03:09:40.574Z,13.20
2023-01-07T03:10:48.700Z,16.10
2023-01-07T03:12:03.384Z,11.85
2023-01-07T03:13:09.949Z,11.85
2023-01-07T03:14:20.734Z,10.43
2023-01-07T03:15:28.841Z,10.50
2023-01-07T03:16:39.604Z,24.92
2023-01-07T03:18:56.037Z,23.70
2023-01-07T03:20:07.192Z,14.60
2023-01-07T03:21:16.727Z,22.08
2023-01-07T03:22:21.446Z,17.70
2023-01-07T03:23:30.178Z,12.80
2023-01-07T03:24:33.378Z,15.15
2023-01-07T03:25:41.973Z,16.33
2023-01-07T03:26:47.602Z,44.30
2023-01-07T03:27:54.844Z,11.35
2023-01-07T03:28:59.718Z,15.45
2023-01-07T03:30:07.718Z,10.07
2023-01-07T03:31:13.925Z,10.40
2023-01-07T03:32:20.794Z,9.23
2023-01-07T03:33:29.151Z,9.15
2023-01-07T03:34:36.710Z,9.73
2023-01-07T03:35:45.446Z,12.50
2023-01-07T03:36:56.297Z,27.23
2023-01-07T03:38:00.990Z,17.67
2023-01-07T03:39:08.288Z,13.52
2023-01-07T03:40:12.813Z,13.40
2023-01-07T03:41:38.272Z,11.18
2023-01-07T03:42:42.153Z,14.02
2023-01-07T03:43:44.949Z,9.35
2023-01-07T03:44:47.506Z,20.58
2023-01-07T03:45:55.413Z,13.25
2023-01-07T03:46:58.550Z,9.38
2023-01-07T03:48:04.278Z,9.00
2023-01-07T03:49:06.923Z,6.90
2023-01-07T03:50:12.899Z,8.70
2023-01-07T03:51:18.356Z,9.10
2023-01-07T03:52:23.760Z,7.57
2023-01-07T03:53:29.037Z,13.68
2023-01-07T03:54:32.252Z,7.47
2023-01-07T03:55:37.893Z,10.65
2023-01-07T03:56:40.584Z,11.68
2023-01-07T03:57:46.297Z,9.77
2023-01-07T03:58:49.118Z,15.25
2023-01-07T03:59:54.485Z,8.55
2023-01-07T04:00:57.227Z,6.25
2023-01-07T04:02:03.023Z,7.95
2023-01-07T04:03:08.587Z,9.07
2023-01-07T04:04:11.171Z,8.27
2023-01-07T04:05:16.369Z,8.20
2023-01-07T04:06:21.807Z,9.18
2023-01-07T04:07:27.464Z,7.75
2023-01-07T04:08:29.992Z,7.97
2023-01-07T04:09:35.418Z,16.90
2023-01-07T04:10:37.444Z,17.38
2023-01-07T04:11:42.587Z,12.55
2023-01-07T04:12:45.028Z,10.77
2023-01-07T04:13:50.192Z,17.20
2023-01-07T04:14:53.160Z,8.15
2023-01-07T04:15:58.035Z,8.52
2023-01-07T04:17:01.263Z,9.52
2023-01-07T04:18:06.543Z,12.50
2023-01-07T04:19:09.574Z,6.80
2023-01-07T04:20:14.561Z,7.50
2023-01-07T04:21:17.910Z,11.52
2023-01-07T04:22:26.093Z,6.18
2023-01-07T04:23:29.127Z,6.63
2023-01-07T04:24:34.392Z,5.68
2023-01-07T04:25:37.045Z,8.38
2023-01-07T04:26:42.851Z,8.25
2023-01-07T04:27:45.601Z,8.57
2023-01-07T04:28:51.190Z,10.27
2023-01-07T04:29:54.017Z,5.95
2023-01-07T04:31:02.012Z,6.00
2023-01-07T04:32:05.161Z,6.50
2023-01-07T04:33:11.263Z,8.25
2023-01-07T04:34:14.302Z,6.72
2023-01-07T04:35:20.180Z,9.10
2023-01-07T04:36:26.008Z,14.25
2023-01-07T04:37:30.973Z,7.20
2023-01-07T04:38:36.381Z,11.10
2023-01-07T04:39:39.229Z,12.18
2023-01-07T04:40:44.860Z,9.90
2023-01-07T04:41:47.675Z,10.65
2023-01-07T04:42:52.932Z,12.93
2023-01-07T04:43:55.522Z,7.20
2023-01-07T04:45:00.499Z,6.35
2023-01-07T04:46:03.890Z,6.25
2023-01-07T04:47:09.241Z,6.97
2023-01-07T04:48:11.803Z,6.60
2023-01-07T04:49:17.085Z,7.18
2023-01-07T04:50:19.856Z,6.03
2023-01-07T04:51:25.375Z,18.55
2023-01-07T04:52:28.391Z,29.30
2023-01-07T04:53:36.125Z,9.88
2023-01-07T04:54:38.832Z,11.88
2023-01-07T04:55:46.366Z,13.30
2023-01-07T04:56:49.060Z,12.70
2023-01-07T04:57:54.918Z,9.95
2023-01-07T04:58:57.647Z,7.65
2023-01-07T05:00:03.293Z,11.10
2023-01-07T05:01:07.557Z,17.52
2023-01-07T05:02:13.117Z,9.05
2023-01-07T05:03:15.793Z,7.90
2023-01-07T05:04:21.785Z,7.15
2023-01-07T05:05:24.297Z,6.55
2023-01-07T05:06:29.814Z,6.95
2023-01-07T05:07:32.471Z,5.53
2023-01-07T05:08:40.114Z,14.93
2023-01-07T05:09:42.651Z,10.15
2023-01-07T05:10:48.041Z,9.88
2023-01-07T05:11:50.563Z,9.70
2023-01-07T05:12:55.904Z,6.82
2023-01-07T05:14:00.986Z,6.72
2023-01-07T05:15:06.619Z,5.25
2023-01-07T05:16:09.449Z,8.45
2023-01-07T05:17:14.642Z,5.53
2023-01-07T05:18:17.779Z,4.10
2023-01-07T05:19:22.853Z,4.15
2023-01-07T05:20:25.265Z,4.47
2023-01-07T05:21:30.814Z,6.47
2023-01-07T05:22:34.017Z,4.82
2023-01-07T05:23:42.065Z,10.02
2023-01-07T05:24:44.561Z,10.05
2023-01-07T05:25:49.937Z,8.63
2023-01-07T05:26:52.915Z,7.38
2023-01-07T05:27:58.624Z,5.07
2023-01-07T05:29:01.155Z,6.38
2023-01-07T05:30:07.333Z,5.18
2023-01-07T05:31:10.043Z,5.63
2023-01-07T05:32:15.422Z,4.95
2023-01-07T05:33:18.021Z,5.68
2023-01-07T05:34:23.200Z,6.22
2023-01-07T05:35:25.734Z,5.35
2023-01-07T05:36:30.971Z,5.30
2023-01-07T05:37:37.385Z,4.93
2023-01-07T05:38:42.843Z,10.73
2023-01-07T05:39:48.464Z,7.70
2023-01-07T05:40:51.007Z,7.53
2023-01-07T05:41:56.048Z,8.45
2023-01-07T05:42:58.772Z,7.15
2023-01-07T05:44:04.038Z,7.20
2023-01-07T05:45:08.541Z,7.78
2023-01-07T05:46:13.541Z,8.02
2023-01-07T05:47:16.322Z,9.93
2023-01-07T05:48:21.353Z,7.57
2023-01-07T05:49:24.036Z,8.23
2023-01-07T05:50:29.203Z,8.55
2023-01-07T05:51:31.660Z,9.27
2023-01-07T05:52:37.262Z,6.78
2023-01-07T05:53:45.231Z,9.90
2023-01-07T05:54:50.500Z,10.73
2023-01-07T05:55:57.547Z,6.60
2023-01-07T05:57:03.094Z,5.90
2023-01-07T05:58:07.054Z,12.52
2023-01-07T05:59:12.319Z,7.25
2023-01-07T06:00:15.869Z,7.07
2023-01-07T06:01:21.573Z,6.07
2023-01-07T06:02:24.369Z,5.72
2023-01-07T06:03:30.138Z,5.25
2023-01-07T06:04:34.758Z,18.52
2023-01-07T06:05:40.216Z,8.57
2023-01-07T06:06:42.671Z,12.32
2023-01-07T06:07:48.070Z,8.23
2023-01-07T06:08:53.257Z,19.52
2023-01-07T06:09:58.211Z,7.57
2023-01-07T06:11:03.220Z,10.38
2023-01-07T06:12:06.079Z,7.03
2023-01-07T06:13:11.509Z,8.35
2023-01-07T06:14:14.118Z,12.40
2023-01-07T06:15:19.425Z,6.05
2023-01-07T06:16:21.890Z,8.32
2023-01-07T06:17:27.168Z,34.25
2023-01-07T06:18:29.934Z,7.70
2023-01-07T06:19:35.004Z,10.32
2023-01-07T06:20:37.824Z,7.40
2023-01-07T06:21:43.150Z,11.10
2023-01-07T06:22:46.082Z,11.23
2023-01-07T06:23:51.519Z,6.43
2023-01-07T06:24:56.763Z,7.95
2023-01-07T06:26:02.104Z,10.95
2023-01-07T06:27:04.545Z,19.83
2023-01-07T06:28:09.711Z,7.75
2023-01-07T06:29:12.696Z,8.05
2023-01-07T06:30:18.170Z,6.25
2023-01-07T06:31:21.040Z,10.93
2023-01-07T06:32:26.528Z,5.72
2023-01-07T06:33:29.037Z,8.57
2023-01-07T06:34:33.983Z,15.82
2023-01-07T06:35:36.662Z,10.15
2023-01-07T06:36:41.885Z,21.33
2023-01-07T06:37:44.499Z,9.55
2023-01-07T06:38:49.520Z,10.50
2023-01-07T06:39:52.510Z,6.93
2023-01-07T06:41:00.556Z,6.65
2023-01-07T06:42:03.086Z,6.93
2023-01-07T06:43:08.229Z,7.72
2023-01-07T06:44:10.891Z,8.60
2023-01-07T06:45:16.278Z,6.57
2023-01-07T06:46:19.016Z,6.75
2023-01-07T06:47:25.456Z,10.98
2023-01-07T06:48:28.219Z,5.80
2023-01-07T06:49:33.361Z,5.75
2023-01-07T06:50:36.194Z,7.28
2023-01-07T06:51:41.476Z,9.07
2023-01-07T06:52:44.508Z,9.52
2023-01-07T06:53:50.106Z,9.32
2023-01-07T06:54:52.917Z,34.72
2023-01-07T06:56:01.238Z,6.75
2023-01-07T06:57:04.350Z,6.35
2023-01-07T06:58:09.519Z,5.65
2023-01-07T06:59:12.542Z,6.28
2023-01-07T07:00:19.261Z,6.68
2023-01-07T07:01:22.143Z,5.22
2023-01-07T07:02:30.371Z,49.45
2023-01-07T07:03:33.101Z,4.82
2023-01-07T07:04:38.724Z,5.55
2023-01-07T07:05:45.151Z,7.82
2023-01-07T07:06:50.621Z,8.95
2023-01-07T07:07:52.508Z,15.18
2023-01-07T07:08:58.271Z,5.95
2023-01-07T07:10:05.188Z,5.47
2023-01-07T07:11:13.581Z,6.72
2023-01-07T07:12:17.156Z,14.23
2023-01-07T07:13:23.161Z,6.25
2023-01-07T07:14:26.800Z,7.55
2023-01-07T07:15:32.593Z,11.05
2023-01-07T07:16:38.908Z,9.07
2023-01-07T07:17:41.858Z,10.88
2023-01-07T07:18:47.659Z,14.77
2023-01-07T07:19:50.836Z,10.40
2023-01-07T07:20:58.634Z,36.33
2023-01-07T07:22:03.959Z,8.80
2023-01-07T07:23:09.373Z,7.95
2023-01-07T07:24:13.345Z,13.32
2023-01-07T07:25:19.443Z,8.60
2023-01-07T07:26:25.200Z,6.82
2023-01-07T07:27:31.161Z,9.30
2023-01-07T07:28:33.464Z,7.90
2023-01-07T07:29:38.428Z,6.18
2023-01-07T07:30:45.672Z,15.85
2023-01-07T07:31:53.525Z,9.15
2023-01-07T07:32:56.535Z,9.43
2023-01-07T07:34:02.494Z,6.28
2023-01-07T07:35:05.944Z,9.30
2023-01-07T07:36:12.343Z,5.45
2023-01-07T07:37:15.366Z,5.32
2023-01-07T07:38:21.655Z,6.00
2023-01-07T07:39:25.292Z,6.25
2023-01-07T07:40:32.582Z,7.07
2023-01-07T07:41:38.524Z,6.88
2023-01-07T07:43:10.245Z,10.50
2023-01-07T07:44:10.223Z,8.02
2023-01-07T07:45:16.384Z,7.47
2023-01-07T07:46:19.405Z,15.85
2023-01-07T07:47:24.759Z,10.40
2023-01-07T07:48:30.540Z,15.23
2023-01-07T07:49:32.732Z,14.90
2023-01-07T07:50:38.731Z,11.70
2023-01-07T07:51:41.640Z,21.35
2023-01-07T07:52:47.621Z,21.02
2023-01-07T07:53:50.464Z,17.40
2023-01-07T07:54:55.347Z,11.60
2023-01-07T07:56:20.863Z,8.43
2023-01-07T07:57:29.749Z,6.88
2023-01-07T07:58:32.750Z,8.60
2023-01-07T07:59:37.589Z,8.60
2023-01-07T08:00:40.984Z,12.52
2023-01-07T08:01:46.551Z,12.80
2023-01-07T08:02:49.421Z,11.95
2023-01-07T08:03:55.576Z,11.95
2023-01-07T08:04:58.557Z,7.57
2023-01-07T08:06:04.199Z,9.45
2023-01-07T08:07:07.202Z,9.63
2023-01-07T08:08:13.313Z,8.82
2023-01-07T08:09:16.184Z,10.88
2023-01-07T08:10:21.759Z,10.63
2023-01-07T08:11:27.165Z,10.30
2023-01-07T08:12:33.264Z,10.18
2023-01-07T08:13:38.800Z,7.47
2023-01-07T08:14:44.169Z,9.93
2023-01-07T08:15:50.555Z,10.52
2023-01-07T08:16:55.453Z,10.13
2023-01-07T08:18:00.450Z,6.85
2023-01-07T08:19:06.069Z,7.03
2023-01-07T08:20:09.712Z,18.75
2023-01-07T08:21:14.967Z,11.25
2023-01-07T08:22:18.074Z,5.13
2023-01-07T08:23:23.320Z,6.32
2023-01-07T08:24:26.609Z,8.32
2023-01-07T08:25:33.539Z,6.28
2023-01-07T08:26:39.315Z,7.18
2023-01-07T08:27:44.717Z,12.10
2023-01-07T08:28:50.063Z,12.57
2023-01-07T08:29:55.231Z,16.90
2023-01-07T08:31:00.915Z,11.82
2023-01-07T08:32:04.057Z,10.00
2023-01-07T08:33:10.389Z,10.20
2023-01-07T08:34:13.046Z,12.25
2023-01-07T08:35:19.416Z,7.90
2023-01-07T08:36:23.578Z,8.57
2023-01-07T08:37:28.986Z,11.18
2023-01-07T08:38:32.818Z,11.77
2023-01-07T08:39:38.645Z,15.65
2023-01-07T08:40:41.720Z,19.60
2023-01-07T08:41:47.336Z,18.23
2023-01-07T08:42:52.740Z,14.75
2023-01-07T08:43:58.434Z,13.35
2023-01-07T08:45:03.294Z,9.63
2023-01-07T08:46:06.908Z,9.68
2023-01-07T08:47:12.259Z,11.48
2023-01-07T08:48:15.117Z,7.70
2023-01-07T08:49:20.931Z,9.02
2023-01-07T08:50:23.251Z,7.82
2023-01-07T08:51:29.679Z,20.58
2023-01-07T08:52:32.728Z,11.18
2023-01-07T08:53:38.739Z,10.93
2023-01-07T08:54:41.166Z,17.35
2023-01-07T08:55:46.673Z,12.15
2023-01-07T08:56:49.866Z,19.58
2023-01-07T08:57:58.974Z,12.93
2023-01-07T08:59:05.144Z,7.70
2023-01-07T09:00:09.587Z,7.65
2023-01-07T09:01:15.849Z,8.15
2023-01-07T09:02:23.174Z,7.65
2023-01-07T09:03:28.928Z,8.07
2023-01-07T09:04:32.407Z,7.22
2023-01-07T09:05:38.165Z,9.63
2023-01-07T09:06:44.322Z,11.60
2023-01-07T09:07:46.687Z,14.13
2023-01-07T09:08:52.447Z,13.25
2023-01-07T09:09:55.298Z,11.43
2023-01-07T09:11:00.914Z,11.55
2023-01-07T09:12:04.152Z,8.07
2023-01-07T09:13:12.474Z,7.80
2023-01-07T09:14:15.313Z,12.43
2023-01-07T09:15:21.276Z,9.02
2023-01-07T09:16:27.019Z,10.70
2023-01-07T09:17:32.318Z,11.25
2023-01-07T09:18:37.591Z,21.92
2023-01-07T09:19:40.581Z,11.88
2023-01-07T09:20:45.872Z,11.93
2023-01-07T09:21:48.901Z,21.98
2023-01-07T09:22:54.444Z,13.75
2023-01-07T09:23:57.757Z,11.95
2023-01-07T09:25:03.278Z,9.25
2023-01-07T09:26:09.044Z,8.50
2023-01-07T09:27:12.082Z,7.70
2023-01-07T09:28:19.988Z,7.60
2023-01-07T09:29:22.811Z,7.07
2023-01-07T09:30:28.438Z,7.55
2023-01-07T09:31:33.419Z,8.27
2023-01-07T09:32:36.631Z,8.40
2023-01-07T09:33:42.064Z,8.32
2023-01-07T09:34:45.237Z,13.32
2023-01-07T09:35:50.539Z,11.57
2023-01-07T09:36:53.051Z,10.80
2023-01-07T09:37:58.334Z,10.65
2023-01-07T09:39:01.647Z,8.38
2023-01-07T09:40:08.097Z,9.00
2023-01-07T09:41:24.916Z,9.30
2023-01-07T09:42:38.367Z,9.85
2023-01-07T09:43:59.431Z,12.93
2023-01-07T09:45:17.447Z,9.50
2023-01-07T09:46:22.924Z,12.00
2023-01-07T09:47:33.873Z,9.57
2023-01-07T09:48:42.965Z,8.85
2023-01-07T09:49:48.859Z,14.15
2023-01-07T09:50:59.496Z,11.93
2023-01-07T09:52:11.694Z,13.30
2023-01-07T09:53:18.426Z,11.13
2023-01-07T09:54:32.547Z,15.43
2023-01-07T09:55:38.112Z,9.50
2023-01-07T09:57:04.418Z,9.93
2023-01-07T09:58:10.385Z,10.02
2023-01-07T09:59:20.565Z,11.02
2023-01-07T10:00:27.767Z,10.10
2023-01-07T10:01:39.733Z,10.13
2023-01-07T10:02:59.050Z,19.02
2023-01-07T10:04:22.561Z,10.38
2023-01-07T10:05:36.659Z,9.80
2023-01-07T10:06:47.821Z,10.57
2023-01-07T10:08:31.254Z,17.10
2023-01-07T10:11:08.920Z,11.25
2023-01-07T10:12:20.231Z,12.90
2023-01-07T10:13:45.455Z,12.85
2023-01-07T10:15:18.967Z,11.20
2023-01-07T10:16:31.473Z,10.50
2023-01-07T10:17:50.669Z,12.30
2023-01-07T10:19:02.092Z,11.10
2023-01-07T10:20:18.545Z,9.43
2023-01-07T10:21:26.176Z,8.13
2023-01-07T10:22:35.572Z,8.15
2023-01-07T10:23:42.555Z,10.07
2023-01-07T10:24:51.916Z,13.35
2023-01-07T10:25:56.834Z,13.40
2023-01-07T10:27:07.445Z,8.75
2023-01-07T10:28:21.192Z,9.77
2023-01-07T10:29:31.240Z,6.43
2023-01-07T10:30:46.254Z,9.55
2023-01-07T10:31:50.590Z,9.15
2023-01-07T10:33:02.184Z,8.32
2023-01-07T10:35:21.745Z,9.40
2023-01-07T10:36:30.166Z,9.02
2023-01-07T10:37:37.111Z,11.10
2023-01-07T10:38:45.193Z,8.05
2023-01-07T10:39:57.979Z,11.13
2023-01-07T10:41:10.021Z,6.95
2023-01-07T10:42:23.700Z,11.07
2023-01-07T10:43:45.959Z,6.95
2023-01-07T10:45:23.592Z,13.30
2023-01-07T10:46:47.153Z,6.47
2023-01-07T10:48:07.804Z,12.02
2023-01-07T10:49:33.945Z,6.53
2023-01-07T10:50:55.550Z,6.88
2023-01-07T10:52:18.369Z,11.57
2023-01-07T10:53:36.777Z,7.57
2023-01-07T10:55:17.392Z,9.35
2023-01-07T10:56:29.349Z,9.25
2023-01-07T10:57:33.595Z,8.75
2023-01-07T10:58:43.606Z,10.15
2023-01-07T10:59:50.522Z,9.25
2023-01-07T11:00:56.080Z,14.32
2023-01-07T11:02:02.108Z,12.23
2023-01-07T11:03:07.782Z,7.25
2023-01-07T11:04:17.462Z,7.80
2023-01-07T11:05:21.695Z,14.30
2023-01-07T11:06:37.703Z,7.93
2023-01-07T11:07:49.340Z,7.38
2023-01-07T11:09:57.978Z,11.85
2023-01-07T11:11:00.836Z,11.98
2023-01-07T11:12:20.543Z,9.60
2023-01-07T11:13:29.990Z,7.10
2023-01-07T11:14:38.655Z,9.43
2023-01-07T11:15:49.028Z,9.93
2023-01-07T11:17:00.617Z,13.13
2023-01-07T11:18:14.988Z,8.65
2023-01-07T11:19:17.963Z,9.20
2023-01-07T11:20:44.306Z,11.57
2023-01-07T11:21:52.613Z,11.13
2023-01-07T11:22:55.866Z,39.33
2023-01-07T11:24:02.326Z,11.02
2023-01-07T11:25:29.415Z,8.73
2023-01-07T11:26:35.701Z,9.48
2023-01-07T11:27:48.636Z,7.88
2023-01-07T11:28:56.573Z,13.25
2023-01-07T11:30:05.656Z,14.07
2023-01-07T11:31:09.227Z,11.52
2023-01-07T11:32:26.551Z,12.15
2023-01-07T11:34:02.206Z,10.48
2023-01-07T11:35:07.868Z,12.00
2023-01-07T11:36:10.561Z,8.93
2023-01-07T11:37:39.211Z,9.75
2023-01-07T11:38:42.766Z,9.57
2023-01-07T11:40:01.824Z,11.10
2023-01-07T11:41:09.332Z,10.68
2023-01-07T11:42:32.887Z,22.67
2023-01-07T11:43:42.078Z,14.55
2023-01-07T11:44:45.040Z,12.05
2023-01-07T11:46:20.128Z,10.50
2023-01-07T11:47:21.921Z,15.32
2023-01-07T11:48:35.933Z,8.85
2023-01-07T11:49:44.805Z,13.80
2023-01-07T11:51:00.643Z,12.25
2023-01-07T11:52:03.321Z,17.60
2023-01-07T11:53:28.045Z,12.52
2023-01-07T11:54:36.007Z,7.43
2023-01-07T11:55:40.334Z,8.55
2023-01-07T11:56:46.254Z,7.45
2023-01-07T11:58:03.486Z,9.80
2023-01-07T11:59:33.041Z,9.70
2023-01-07T12:00:39.151Z,8.98
2023-01-07T12:01:44.123Z,8.27
2023-01-07T12:03:05.727Z,10.60
2023-01-07T12:04:25.072Z,9.95
2023-01-07T12:05:28.931Z,6.60
2023-01-07T12:06:38.571Z,6.68
2023-01-07T12:07:49.888Z,12.63
2023-01-07T12:08:59.179Z,15.02
2023-01-07T12:10:04.602Z,13.05
2023-01-07T12:11:10.804Z,8.52
2023-01-07T12:12:35.199Z,8.43
2023-01-07T12:13:42.225Z,8.77
2023-01-07T12:14:51.319Z,9.05
2023-01-07T12:15:58.035Z,15.40
2023-01-07T12:17:15.772Z,12.88
2023-01-07T12:18:53.986Z,10.50
2023-01-07T12:20:31.264Z,12.05
2023-01-07T12:21:38.135Z,12.52
2023-01-07T12:22:50.456Z,11.00
2023-01-07T12:24:22.431Z,13.13
2023-01-07T12:25:45.384Z,9.38
2023-01-07T12:27:22.518Z,6.45
2023-01-07T12:28:44.810Z,10.48
2023-01-07T12:30:00.896Z,7.00
2023-01-07T12:31:22.093Z,12.52
2023-01-07T12:32:36.168Z,8.40
2023-01-07T12:34:03.965Z,9.05
2023-01-07T12:35:18.491Z,11.57
2023-01-07T12:36:27.314Z,6.88
2023-01-07T12:37:37.343Z,9.00
2023-01-07T12:38:48.933Z,8.45
2023-01-07T12:39:56.888Z,8.43
2023-01-07T12:41:05.781Z,9.80
2023-01-07T12:42:15.282Z,10.85
2023-01-07T12:43:23.650Z,6.32
2023-01-07T12:44:28.491Z,7.50
2023-01-07T12:45:36.912Z,8.38
2023-01-07T12:46:45.804Z,9.75
2023-01-07T12:47:51.651Z,9.55
2023-01-07T12:49:05.787Z,11.32
2023-01-07T12:50:21.478Z,12.38
2023-01-07T12:51:55.651Z,5.20
2023-01-07T12:53:07.005Z,16.80
2023-01-07T12:54:15.997Z,10.30
2023-01-07T12:55:24.422Z,8.88
2023-01-07T12:56:33.093Z,8.70
2023-01-07T12:57:40.672Z,9.95
2023-01-07T12:58:47.342Z,8.50
2023-01-07T12:59:56.631Z,7.32
2023-01-07T13:01:09.019Z,17.15
2023-01-07T13:02:19.881Z,8.68
2023-01-07T13:03:47.713Z,7.70
2023-01-07T13:05:00.723Z,10.85
2023-01-07T13:06:13.866Z,9.23
2023-01-07T13:07:26.232Z,8.23
2023-01-07T13:08:41.602Z,18.38
2023-01-07T13:23:03.184Z,16.58
2023-01-07T13:24:54.824Z,22.38
2023-01-07T13:26:11.109Z,33.33
2023-01-07T13:27:26.908Z,15.55
2023-01-07T13:29:05.275Z,9.95
2023-01-07T13:30:24.895Z,13.70
2023-01-07T13:31:43.972Z,15.40
2023-01-07T13:33:04.073Z,13.25
2023-01-07T13:34:24.754Z,14.50
2023-01-07T13:37:47.871Z,9.20
2023-01-07T13:40:27.610Z,8.07
2023-01-07T13:41:48.113Z,9.82
2023-01-07T13:42:58.664Z,14.30
2023-01-07T13:44:40.430Z,10.95
2023-01-07T13:45:58.263Z,8.18
2023-01-07T13:47:06.591Z,10.68
2023-01-07T13:48:21.738Z,8.45
2023-01-07T13:49:27.594Z,6.20
2023-01-07T13:50:38.287Z,6.18
2023-01-07T13:51:40.561Z,4.90
2023-01-07T13:52:46.128Z,6.05
2023-01-07T13:53:52.153Z,5.18
2023-01-07T13:54:57.319Z,6.70
2023-01-07T13:56:35.083Z,8.73
2023-01-07T13:57:45.378Z,9.48
2023-01-07T13:58:53.843Z,6.65
2023-01-07T13:59:58.777Z,8.52
2023-01-07T14:01:06.323Z,8.60
2023-01-07T14:02:24.880Z,7.72
2023-01-07T14:03:50.088Z,9.40
2023-01-07T14:05:07.983Z,6.20
2023-01-07T14:06:38.771Z,8.82
2023-01-07T14:07:49.557Z,8.93
2023-01-07T14:10:55.924Z,8.32
2023-01-07T14:12:23.732Z,8.98
2023-01-07T14:13:36.559Z,4.68
2023-01-07T14:14:45.977Z,4.45
2023-01-07T14:16:09.714Z,4.57
2023-01-07T14:17:23.182Z,6.85
2023-01-07T14:19:06.568Z,8.43
2023-01-07T14:20:17.425Z,11.70
2023-01-07T14:21:49.810Z,6.22
2023-01-07T14:24:23.228Z,11.43
2023-01-07T14:25:45.672Z,7.57
2023-01-07T14:26:56.555Z,8.32
2023-01-07T14:28:20.912Z,10.38
2023-01-07T14:29:39.884Z,5.93
2023-01-07T14:30:47.685Z,7.85
2023-01-07T14:31:51.440Z,8.45
2023-01-07T14:33:01.298Z,7.40
2023-01-07T14:34:09.063Z,11.70
2023-01-07T14:35:28.609Z,11.48
2023-01-07T14:37:04.974Z,4.93
2023-01-07T14:38:39.768Z,10.07
2023-01-07T14:39:44.068Z,7.47
2023-01-07T14:41:09.776Z,5.47
2023-01-07T14:42:51.775Z,9.73
2023-01-07T14:44:31.006Z,5.20
2023-01-07T14:45:54.670Z,7.15
2023-01-07T14:46:59.348Z,5.60
2023-01-07T14:48:01.403Z,9.45
2023-01-07T14:49:30.845Z,6.88
2023-01-07T14:50:41.269Z,5.10
2023-01-07T14:51:50.468Z,8.15
2023-01-07T14:53:26.107Z,8.18
2023-01-07T14:54:47.638Z,5.85
2023-01-07T14:56:24.904Z,6.60
2023-01-07T14:57:41.135Z,8.95
2023-01-07T14:59:03.162Z,5.75
2023-01-07T15:02:05.717Z,3.72
2023-01-07T15:03:31.937Z,3.70
2023-01-07T15:05:09.865Z,4.85
2023-01-07T15:06:24.745Z,3.83
2023-01-07T15:07:33.733Z,5.53
2023-01-07T15:08:59.443Z,4.30
2023-01-07T15:10:22.415Z,4.72
2023-01-07T15:11:41.668Z,4.45
2023-01-07T15:13:01.687Z,4.60
2023-01-07T15:14:30.060Z,4.22
2023-01-07T15:15:53.966Z,4.03
2023-01-07T15:17:03.088Z,4.97
2023-01-07T15:18:35.832Z,6.20
2023-01-07T15:19:55.208Z,3.75
2023-01-07T15:21:41.849Z,6.78
2023-01-07T15:23:33.937Z,12.63
2023-01-07T15:25:18.801Z,6.33
2023-01-07T15:26:55.336Z,5.45
2023-01-07T15:28:33.567Z,5.57
2023-01-07T15:32:49.865Z,4.63
2023-01-07T15:43:20.141Z,6.20
2023-01-07T15:46:59.300Z,8.20
2023-01-07T15:48:48.788Z,8.95
2023-01-07T15:51:40.990Z,5.68